עמוד ראשי
METAR-TAF:

METAR-TAF

שדות תעופה :

Sandane, נורבגיה

קו רוחב: 61-50N, קו אורך: 006-07E, גובה: 6מטר

תצפית מזג אוויר נוכחית

הדו"ח נערך לפני 43דקות, בשעה 21:50 UTC
רוח 9קשר מכיוון צפון/צפון-מערב, משתנה בין מערב/צפון-מערב ו צפון/צפון-מזרח
טמפרטורת 14 צלסיוס
לחות 72%
לחץ 1014 hPa
ראות 10 קילומטר או יותר
גשם קל

METAR: ENSD 182150Z AUTO 33009KT 290V020 9999 -RA BKN039/// OVC074/// 14/09 Q1014 RMK WIND RWY 26 01003KT WIND 1140FT 28008KT

זמן: 00:33 (22:33 UTC)

תחזית

הדו"ח נערך לפני 12 שעות ו 45דקות, בשעה 09:48 UTC
תחזית בתוקף מ 18 ב 09 UTC עד 18 ב 16 UTC
רוח 10קשר מכיוון דרום-מערב
ראות 10 קילומטר או יותר
מעט עננים בגובה 4000רגל
עננים פזורים בגובה 8000רגל
זמנית מ -
18 ב 09 UTC עד 18 ב 15 UTC
רוח 20קשר מכיוון דרום/דרום-מערב
הסתברות 30% :
זמנית מ -
18 ב 12 UTC עד 18 ב 16 UTC
עננים פזורים בגובה 3000רגל , קומולוס מיגדלי.
עננים בינוניים בגובה 4000רגל
ממטרי גשם,

TAF: ENSD 180948Z 1809/1816 22010KT 9999 FEW040 SCT080 TEMPO 1809/1815 20020KT PROB30 TEMPO 1812/1816 SHRA SCT030TCU BKN040

תצפיות ותחזיות מזג אוויר לגבי יותר מ- 4,000 שדות תעופה ברחבי העולם. דוחות METAR ו- TAF.

התחנות הזמינות מסומנות בנקודות צהובות ואדומות על גבי המפה.

העבר את העכבר לנקודה הצבעונית על מנת לראות את שם התחנה.

לאחר מכן, לחץ כדי לראות את תוכן ואת תחזיות מזג האוויר.

כדי לשנות את המפה: לחץ על הכפתורים הירוקים עם הפלוס השחור כדי להתקרב; על הכפתור הירוק עם המקף כדי להתרחק; או בחיצים הירוקים למפות סמוכות.


METAR-TAF: